createdAt,value
2022-10-04T00:02:21.765Z,3.92
2022-10-04T00:05:18.105Z,4.85
2022-10-04T00:07:59.825Z,4.25
2022-10-04T00:10:36.085Z,4.82
2022-10-04T00:13:14.369Z,4.47
2022-10-04T00:15:46.066Z,4.00
2022-10-04T00:18:40.627Z,4.28
2022-10-04T00:21:11.773Z,4.10
2022-10-04T00:23:44.735Z,4.40
2022-10-04T00:26:38.355Z,4.60
2022-10-04T00:29:29.276Z,4.00
2022-10-04T00:32:15.366Z,4.25
2022-10-04T00:34:52.467Z,3.92
2022-10-04T00:37:26.884Z,4.18
2022-10-04T00:40:02.705Z,4.65
2022-10-04T00:42:39.515Z,3.80
2022-10-04T00:45:21.796Z,4.50
2022-10-04T00:48:04.770Z,4.03
2022-10-04T00:50:47.237Z,3.90
2022-10-04T00:53:42.304Z,3.67
2022-10-04T00:56:19.988Z,4.20
2022-10-04T00:59:08.566Z,4.00
2022-10-04T01:01:40.911Z,4.43
2022-10-04T01:04:33.765Z,3.50
2022-10-04T01:07:07.327Z,4.20
2022-10-04T01:12:35.659Z,4.03
2022-10-04T01:15:16.023Z,4.05
2022-10-04T01:18:18.027Z,3.97
2022-10-04T01:21:02.154Z,3.58
2022-10-04T01:23:42.899Z,3.90
2022-10-04T01:26:31.783Z,4.28
2022-10-04T01:29:04.468Z,4.03
2022-10-04T01:31:39.265Z,4.00
2022-10-04T01:34:10.697Z,4.55
2022-10-04T01:36:41.953Z,3.97
2022-10-04T01:39:13.286Z,4.55
2022-10-04T01:42:08.372Z,4.15
2022-10-04T01:44:51.446Z,3.90
2022-10-04T01:48:11.056Z,3.90
2022-10-04T01:50:49.293Z,3.72
2022-10-04T01:53:29.070Z,4.30
2022-10-04T01:56:10.581Z,4.10
2022-10-04T01:58:56.539Z,4.38
2022-10-04T02:01:41.691Z,3.97
2022-10-04T02:07:15.605Z,3.67
2022-10-04T02:09:49.550Z,4.00
2022-10-04T02:12:21.505Z,3.67
2022-10-04T02:14:54.651Z,4.20
2022-10-04T02:17:29.804Z,4.28
2022-10-04T02:20:03.773Z,3.88
2022-10-04T02:22:34.884Z,3.90
2022-10-04T02:25:06.691Z,3.60
2022-10-04T02:27:37.913Z,3.38
2022-10-04T02:30:14.345Z,3.83
2022-10-04T02:33:02.088Z,3.95
2022-10-04T02:35:48.610Z,3.97
2022-10-04T02:38:27.676Z,4.03
2022-10-04T02:41:22.305Z,3.80
2022-10-04T02:44:22.596Z,3.80
2022-10-04T02:46:59.772Z,3.72
2022-10-04T02:49:39.534Z,3.75
2022-10-04T02:52:18.124Z,3.53
2022-10-04T02:55:21.378Z,4.32
2022-10-04T02:57:53.730Z,4.05
2022-10-04T03:00:28.802Z,3.47
2022-10-04T03:03:17.962Z,3.63
2022-10-04T03:06:16.845Z,3.97
2022-10-04T03:08:49.709Z,3.95
2022-10-04T03:11:24.042Z,3.77
2022-10-04T03:14:16.732Z,3.67
2022-10-04T03:16:49.436Z,3.90
2022-10-04T03:19:23.799Z,3.67
2022-10-04T03:21:57.924Z,3.78
2022-10-04T03:24:35.701Z,3.88
2022-10-04T03:27:10.658Z,3.65
2022-10-04T03:29:46.204Z,3.88
2022-10-04T03:32:20.220Z,3.83
2022-10-04T03:35:07.478Z,4.25
2022-10-04T03:37:43.161Z,3.30
2022-10-04T03:40:16.520Z,3.78
2022-10-04T03:42:48.748Z,3.85
2022-10-04T03:45:22.731Z,3.80
2022-10-04T03:47:58.244Z,3.83
2022-10-04T03:50:33.978Z,3.65
2022-10-04T03:53:27.998Z,3.55
2022-10-04T03:56:04.010Z,3.65
2022-10-04T04:01:42.903Z,3.42
2022-10-04T04:04:26.945Z,3.70
2022-10-04T04:07:34.509Z,3.35
2022-10-04T04:10:16.912Z,3.58
2022-10-04T04:12:53.912Z,3.60
2022-10-04T04:15:25.699Z,3.40
2022-10-04T04:17:58.801Z,3.20
2022-10-04T04:20:34.780Z,3.72
2022-10-04T04:23:24.904Z,3.88
2022-10-04T04:26:01.367Z,3.47
2022-10-04T04:29:04.233Z,3.13
2022-10-04T04:31:42.816Z,3.70
2022-10-04T04:34:20.172Z,3.25
2022-10-04T04:36:51.421Z,3.28
2022-10-04T04:39:38.578Z,3.45
2022-10-04T04:42:18.121Z,3.20
2022-10-04T04:44:52.341Z,3.20
2022-10-04T04:47:29.412Z,3.15
2022-10-04T04:50:14.821Z,3.55
2022-10-04T04:53:06.955Z,3.28
2022-10-04T04:56:02.808Z,3.10
2022-10-04T04:58:45.103Z,3.25
2022-10-04T05:01:36.848Z,3.10
2022-10-04T05:04:13.955Z,2.97
2022-10-04T05:06:47.672Z,3.10
2022-10-04T05:09:44.413Z,3.10
2022-10-04T05:12:25.495Z,3.00
2022-10-04T05:14:58.842Z,3.35
2022-10-04T05:17:36.030Z,2.88
2022-10-04T05:20:08.053Z,3.42
2022-10-04T05:22:41.030Z,3.30
2022-10-04T05:25:27.383Z,2.80
2022-10-04T05:27:59.151Z,2.88
2022-10-04T05:30:56.227Z,3.47
2022-10-04T05:33:42.514Z,3.33
2022-10-04T05:39:16.447Z,2.70
2022-10-04T05:42:02.829Z,3.42
2022-10-04T05:44:55.775Z,3.03
2022-10-04T05:47:32.666Z,2.80
2022-10-04T05:50:04.329Z,3.05
2022-10-04T05:52:42.412Z,2.80
2022-10-04T05:55:54.671Z,2.63
2022-10-04T05:58:51.854Z,2.85
2022-10-04T06:01:34.866Z,3.03
2022-10-04T06:04:20.486Z,3.30
2022-10-04T06:06:56.916Z,3.28
2022-10-04T06:09:52.700Z,2.63
2022-10-04T06:12:47.917Z,2.97
2022-10-04T06:15:34.718Z,2.72
2022-10-04T06:18:32.813Z,2.85
2022-10-04T06:21:19.172Z,2.92
2022-10-04T06:24:15.955Z,2.80
2022-10-04T06:27:00.086Z,2.92
2022-10-04T06:29:40.778Z,2.83
2022-10-04T06:32:25.175Z,3.25
2022-10-04T06:35:12.237Z,2.70
2022-10-04T06:37:53.306Z,2.75
2022-10-04T06:40:48.387Z,3.00
2022-10-04T06:43:50.015Z,2.53
2022-10-04T06:50:22.670Z,2.90
2022-10-04T06:53:06.569Z,2.63
2022-10-04T06:55:56.173Z,2.72
2022-10-04T06:58:56.632Z,2.72
2022-10-04T07:01:31.171Z,3.22
2022-10-04T07:04:15.011Z,2.55
2022-10-04T07:07:25.845Z,2.85
2022-10-04T07:10:10.664Z,2.67
2022-10-04T07:13:04.690Z,3.50
2022-10-04T07:15:46.136Z,2.63
2022-10-04T07:18:32.745Z,2.75
2022-10-04T07:21:17.043Z,2.38
2022-10-04T07:24:09.201Z,2.58
2022-10-04T07:26:46.664Z,2.50
2022-10-04T07:29:22.875Z,2.80
2022-10-04T07:32:19.043Z,2.80
2022-10-04T07:34:59.109Z,2.65
2022-10-04T07:37:32.968Z,2.45
2022-10-04T07:40:28.158Z,2.55
2022-10-04T07:43:12.505Z,2.50
2022-10-04T07:45:44.794Z,2.72
2022-10-04T07:51:46.215Z,3.05
2022-10-04T07:54:35.185Z,2.63
2022-10-04T07:57:19.851Z,2.92
2022-10-04T08:00:23.387Z,2.88
2022-10-04T08:03:29.641Z,2.93
2022-10-04T08:06:20.819Z,2.53
2022-10-04T08:09:15.348Z,3.00
2022-10-04T08:12:18.510Z,2.90
2022-10-04T08:15:11.406Z,2.83
2022-10-04T08:17:54.698Z,2.83
2022-10-04T08:20:26.147Z,2.60
2022-10-04T08:23:21.781Z,2.83
2022-10-04T08:29:20.817Z,2.35
2022-10-04T08:32:14.099Z,2.20
2022-10-04T08:35:05.234Z,2.47
2022-10-04T08:37:46.030Z,2.38
2022-10-04T08:40:53.148Z,2.67
2022-10-04T08:43:44.742Z,2.35
2022-10-04T08:46:56.891Z,2.20
2022-10-04T08:49:38.912Z,2.22
2022-10-04T08:52:34.099Z,2.53
2022-10-04T08:55:23.785Z,2.67
2022-10-04T08:58:03.616Z,2.53
2022-10-04T09:00:58.470Z,2.55
2022-10-04T09:03:44.527Z,2.70
2022-10-04T09:06:37.717Z,1.98
2022-10-04T09:09:37.652Z,2.47
2022-10-04T09:12:52.333Z,2.55
2022-10-04T09:18:16.664Z,2.15
2022-10-04T09:21:10.326Z,2.67
2022-10-04T09:24:07.522Z,2.30
2022-10-04T09:27:03.388Z,2.50
2022-10-04T09:29:55.712Z,2.40
2022-10-04T09:33:23.215Z,2.28
2022-10-04T09:36:26.393Z,2.60
2022-10-04T09:39:30.821Z,2.13
2022-10-04T09:42:40.585Z,2.15
2022-10-04T09:45:17.501Z,2.28
2022-10-04T09:48:17.585Z,2.38
2022-10-04T09:51:29.862Z,2.40
2022-10-04T09:54:22.348Z,1.98
2022-10-04T09:57:15.821Z,2.03
2022-10-04T10:00:27.097Z,2.47
2022-10-04T10:03:37.068Z,2.22
2022-10-04T10:06:42.659Z,2.20
2022-10-04T10:09:44.427Z,2.85
2022-10-04T10:13:00.701Z,2.50
2022-10-04T10:15:57.494Z,2.50
2022-10-04T10:18:58.293Z,2.15
2022-10-04T10:21:40.891Z,2.45
2022-10-04T10:24:59.929Z,2.10
2022-10-04T10:27:42.019Z,2.10
2022-10-04T10:30:53.670Z,2.78
2022-10-04T10:33:43.987Z,2.30
2022-10-04T10:36:29.969Z,2.47
2022-10-04T10:39:16.110Z,2.30
2022-10-04T10:42:13.537Z,2.60
2022-10-04T10:45:15.938Z,2.78
2022-10-04T10:48:15.836Z,2.53
2022-10-04T10:51:02.755Z,1.98
2022-10-04T10:54:06.897Z,2.65
2022-10-04T10:57:07.796Z,2.50
2022-10-04T10:59:54.118Z,2.40
2022-10-04T11:02:51.811Z,3.20
2022-10-04T11:05:47.132Z,2.92
2022-10-04T11:08:46.155Z,2.72
2022-10-04T11:11:39.981Z,3.60
2022-10-04T11:14:39.087Z,3.13
2022-10-04T11:17:22.249Z,3.08
2022-10-04T11:20:04.179Z,2.63
2022-10-04T11:23:08.756Z,3.22
2022-10-04T11:26:16.943Z,2.80
2022-10-04T11:28:52.124Z,3.00
2022-10-04T11:31:58.843Z,2.92
2022-10-04T11:35:16.470Z,2.80
2022-10-04T11:38:09.450Z,2.88
2022-10-04T11:41:08.789Z,2.90
2022-10-04T11:44:02.487Z,2.60
2022-10-04T11:46:43.916Z,2.83
2022-10-04T11:49:38.782Z,3.53
2022-10-04T11:52:46.058Z,2.92
2022-10-04T11:55:35.687Z,2.80
2022-10-04T11:58:21.278Z,3.40
2022-10-04T12:01:21.443Z,2.97
2022-10-04T12:04:11.131Z,3.22
2022-10-04T12:07:10.143Z,3.15
2022-10-04T12:10:01.347Z,2.92
2022-10-04T12:12:51.369Z,3.30
2022-10-04T12:15:25.703Z,3.15
2022-10-04T12:18:26.414Z,2.97
2022-10-04T12:21:04.177Z,3.22
2022-10-04T12:23:57.084Z,2.65
2022-10-04T12:27:04.370Z,3.15
2022-10-04T12:30:01.606Z,3.10
2022-10-04T12:32:41.830Z,3.38
2022-10-04T12:35:30.876Z,3.50
2022-10-04T12:38:14.845Z,3.13
2022-10-04T12:44:11.885Z,2.65
2022-10-04T12:47:02.500Z,3.67
2022-10-04T12:49:56.431Z,3.67
2022-10-04T12:52:32.821Z,3.33
2022-10-04T12:55:43.570Z,3.20
2022-10-04T12:58:55.727Z,3.42
2022-10-04T13:01:49.460Z,3.83
2022-10-04T13:04:32.811Z,3.55
2022-10-04T13:07:31.034Z,3.42
2022-10-04T13:10:46.134Z,3.92
2022-10-04T13:13:20.827Z,4.10
2022-10-04T13:19:36.411Z,3.45
2022-10-04T13:22:54.889Z,4.82
2022-10-04T13:25:49.044Z,4.18
2022-10-04T13:28:31.316Z,5.13
2022-10-04T13:31:52.522Z,4.10
2022-10-04T13:34:37.337Z,4.00
2022-10-04T13:37:19.191Z,3.85
2022-10-04T13:39:58.801Z,4.65
2022-10-04T13:42:45.513Z,5.93
2022-10-04T13:45:30.573Z,4.65
2022-10-04T13:48:29.140Z,4.68
2022-10-04T13:51:49.795Z,4.32
2022-10-04T13:54:58.305Z,4.40
2022-10-04T13:57:45.831Z,4.22
2022-10-04T14:03:34.401Z,4.20
2022-10-04T14:06:35.131Z,3.90
2022-10-04T14:09:41.436Z,3.92
2022-10-04T14:13:15.463Z,4.10
2022-10-04T14:16:26.472Z,4.85
2022-10-04T14:19:08.253Z,4.63
2022-10-04T14:22:15.210Z,4.18
2022-10-04T14:24:49.052Z,4.15
2022-10-04T14:30:43.212Z,4.03
2022-10-04T14:33:17.341Z,3.85
2022-10-04T14:36:06.973Z,3.58
2022-10-04T14:39:07.151Z,3.55
2022-10-04T14:42:11.544Z,3.15
2022-10-04T14:44:52.919Z,3.40
2022-10-04T14:47:36.981Z,3.97
2022-10-04T14:50:30.967Z,3.88
2022-10-04T14:53:13.296Z,3.10
2022-10-04T14:56:10.816Z,3.40
2022-10-04T14:58:55.192Z,3.90
2022-10-04T15:01:30.085Z,3.83
2022-10-04T15:04:02.397Z,3.38
2022-10-04T15:06:53.675Z,3.67
2022-10-04T15:10:03.094Z,3.58
2022-10-04T15:12:58.418Z,3.25
2022-10-04T15:15:44.850Z,3.83
2022-10-04T15:18:42.639Z,3.70
2022-10-04T15:21:44.420Z,3.15
2022-10-04T15:24:44.216Z,3.25
2022-10-04T15:27:36.017Z,3.75
2022-10-04T15:30:25.506Z,3.20
2022-10-04T15:33:29.769Z,3.53
2022-10-04T15:39:06.623Z,3.50
2022-10-04T15:42:19.091Z,3.30
2022-10-04T15:45:19.848Z,3.95
2022-10-04T15:48:12.645Z,3.88
2022-10-04T15:51:12.666Z,3.92
2022-10-04T15:53:46.630Z,3.50
2022-10-04T15:56:42.309Z,3.70
2022-10-04T15:59:27.124Z,3.67
2022-10-04T16:02:06.864Z,3.70
2022-10-04T16:05:07.616Z,3.50
2022-10-04T16:08:01.515Z,3.15
2022-10-04T16:11:17.352Z,2.80
2022-10-04T16:13:56.371Z,3.38
2022-10-04T16:16:28.397Z,3.20
2022-10-04T16:19:10.713Z,2.88
2022-10-04T16:21:58.120Z,3.78
2022-10-04T16:24:41.917Z,3.10
2022-10-04T16:27:28.193Z,3.42
2022-10-04T16:30:28.689Z,3.80
2022-10-04T16:33:03.419Z,3.33
2022-10-04T16:35:51.718Z,4.07
2022-10-04T16:38:30.286Z,3.10
2022-10-04T16:41:17.954Z,3.20
2022-10-04T16:43:56.570Z,3.33
2022-10-04T16:46:54.250Z,3.22
2022-10-04T16:49:50.162Z,3.03
2022-10-04T16:52:51.698Z,3.35
2022-10-04T16:56:03.796Z,3.15
2022-10-04T16:58:54.083Z,3.13
2022-10-04T17:01:25.229Z,3.38
2022-10-04T17:04:23.995Z,3.13
2022-10-04T17:07:05.349Z,3.30
2022-10-04T17:09:55.473Z,3.10
2022-10-04T17:13:02.458Z,3.05
2022-10-04T17:16:10.389Z,3.30
2022-10-04T17:19:17.374Z,2.90
2022-10-04T17:25:03.270Z,3.30
2022-10-04T17:27:57.790Z,2.90
2022-10-04T17:30:44.679Z,3.13
2022-10-04T17:33:25.627Z,3.05
2022-10-04T17:36:15.617Z,3.03
2022-10-04T17:39:01.888Z,3.35
2022-10-04T17:41:59.917Z,3.40
2022-10-04T17:44:50.918Z,3.13
2022-10-04T17:48:00.680Z,3.03
2022-10-04T17:51:33.892Z,3.03
2022-10-04T17:54:43.020Z,3.15
2022-10-04T17:57:26.769Z,3.40
2022-10-04T18:00:10.438Z,3.00
2022-10-04T18:03:07.292Z,3.08
2022-10-04T18:05:44.526Z,2.90
2022-10-04T18:08:24.369Z,2.88
2022-10-04T18:11:18.132Z,3.08
2022-10-04T18:14:24.975Z,2.97
2022-10-04T18:17:07.366Z,2.88
2022-10-04T18:20:13.324Z,2.85
2022-10-04T18:22:49.745Z,3.20
2022-10-04T18:25:28.214Z,2.80
2022-10-04T18:28:11.021Z,2.90
2022-10-04T18:31:03.141Z,2.70
2022-10-04T18:33:45.736Z,3.08
2022-10-04T18:36:25.920Z,2.88
2022-10-04T18:39:11.781Z,2.70
2022-10-04T18:42:06.480Z,2.88
2022-10-04T18:45:07.296Z,2.95
2022-10-04T18:47:42.739Z,2.63
2022-10-04T18:50:21.987Z,2.90
2022-10-04T18:53:14.972Z,2.80
2022-10-04T18:56:00.830Z,2.83
2022-10-04T18:59:08.075Z,3.30
2022-10-04T19:02:11.200Z,2.88
2022-10-04T19:05:03.449Z,3.10
2022-10-04T19:08:04.534Z,2.92
2022-10-04T19:10:43.534Z,2.80
2022-10-04T19:13:23.297Z,3.08
2022-10-04T19:16:18.912Z,2.47
2022-10-04T19:19:00.037Z,2.90
2022-10-04T19:21:57.341Z,2.90
2022-10-04T19:24:43.594Z,3.20
2022-10-04T19:27:33.225Z,2.60
2022-10-04T19:30:26.885Z,2.55
2022-10-04T19:33:07.056Z,2.28
2022-10-04T19:35:47.598Z,2.40
2022-10-04T19:38:45.878Z,2.80
2022-10-04T19:41:29.615Z,2.55
2022-10-04T19:44:18.242Z,2.85
2022-10-04T19:47:30.133Z,2.47
2022-10-04T19:50:25.143Z,2.65
2022-10-04T19:53:08.872Z,3.03
2022-10-04T19:58:24.038Z,2.30
2022-10-04T20:00:55.331Z,2.70
2022-10-04T20:03:26.677Z,2.53
2022-10-04T20:05:58.792Z,2.47
2022-10-04T20:08:50.843Z,2.80
2022-10-04T20:11:30.810Z,2.72
2022-10-04T20:14:11.566Z,2.70
2022-10-04T20:16:49.306Z,2.50
2022-10-04T20:19:40.121Z,2.53
2022-10-04T20:22:27.937Z,2.50
2022-10-04T20:25:00.498Z,2.92
2022-10-04T20:27:37.829Z,2.42
2022-10-04T20:30:18.441Z,2.53
2022-10-04T20:32:49.385Z,2.83
2022-10-04T20:35:58.072Z,2.45
2022-10-04T20:38:49.776Z,2.53
2022-10-04T20:41:52.863Z,3.03
2022-10-04T20:44:45.897Z,2.35
2022-10-04T20:47:29.343Z,2.58
2022-10-04T20:50:03.189Z,2.50
2022-10-04T20:52:40.480Z,2.50
2022-10-04T20:55:21.884Z,2.60
2022-10-04T20:57:53.015Z,2.90
2022-10-04T21:00:27.090Z,2.40
2022-10-04T21:03:20.686Z,2.70
2022-10-04T21:06:08.140Z,2.40
2022-10-04T21:08:40.351Z,2.85
2022-10-04T21:11:36.819Z,2.63
2022-10-04T21:14:08.295Z,2.38
2022-10-04T21:16:50.334Z,2.60
2022-10-04T21:19:45.302Z,2.63
2022-10-04T21:22:18.660Z,2.90
2022-10-04T21:24:52.307Z,2.25
2022-10-04T21:27:30.785Z,2.40
2022-10-04T21:30:15.141Z,2.63
2022-10-04T21:32:46.638Z,2.53
2022-10-04T21:35:17.488Z,2.58
2022-10-04T21:37:48.409Z,2.67
2022-10-04T21:40:19.304Z,2.80
2022-10-04T21:42:50.283Z,2.65
2022-10-04T21:45:24.383Z,3.08
2022-10-04T21:47:55.442Z,2.65
2022-10-04T21:50:26.526Z,2.90
2022-10-04T21:52:58.884Z,2.78
2022-10-04T21:55:30.008Z,3.08
2022-10-04T21:58:01.030Z,3.50
2022-10-04T22:00:32.010Z,3.15
2022-10-04T22:03:03.239Z,3.15
2022-10-04T22:05:34.308Z,3.60
2022-10-04T22:08:06.868Z,3.35
2022-10-04T22:10:37.793Z,3.50
2022-10-04T22:13:08.827Z,3.70
2022-10-04T22:15:39.958Z,3.80
2022-10-04T22:18:10.967Z,3.75
2022-10-04T22:20:42.062Z,3.88
2022-10-04T22:23:27.301Z,4.28
2022-10-04T22:25:58.628Z,4.47
2022-10-04T22:28:32.194Z,4.38
2022-10-04T22:31:30.618Z,4.57
2022-10-04T22:34:02.233Z,5.05
2022-10-04T22:36:36.137Z,4.38
2022-10-04T22:39:10.017Z,4.90
2022-10-04T22:41:45.221Z,5.35
2022-10-04T22:44:58.378Z,5.40
2022-10-04T22:47:30.885Z,5.40
2022-10-04T22:50:01.813Z,5.20
2022-10-04T22:52:52.364Z,5.57
2022-10-04T22:55:23.510Z,5.78
2022-10-04T22:57:54.672Z,5.72
2022-10-04T23:00:25.571Z,5.93
2022-10-04T23:02:57.940Z,6.43
2022-10-04T23:05:30.415Z,6.43
2022-10-04T23:08:01.252Z,6.65
2022-10-04T23:10:32.132Z,8.50
2022-10-04T23:13:03.117Z,7.07
2022-10-04T23:15:33.998Z,6.97
2022-10-04T23:18:13.711Z,6.63
2022-10-04T23:20:45.959Z,7.70
2022-10-04T23:23:19.844Z,7.57
2022-10-04T23:25:51.783Z,8.23
2022-10-04T23:28:23.314Z,7.97
2022-10-04T23:31:15.267Z,9.02
2022-10-04T23:33:47.294Z,7.72
2022-10-04T23:36:18.612Z,7.25
2022-10-04T23:38:53.105Z,9.23
2022-10-04T23:44:17.152Z,8.50
2022-10-04T23:47:08.146Z,8.75
2022-10-04T23:49:39.386Z,8.57
2022-10-04T23:52:18.220Z,9.77
2022-10-04T23:54:51.607Z,9.07
2022-10-04T23:57:30.217Z,9.55
